AirNav   Pilot Hours Calculator
 
 1395 users online  

58MI Promedica Monroe Regional Hospital Heliport
Monroe, Michigan, USA

GOING TO MONROE?


FAA INFORMATION EFFECTIVE 19 MAY 2022

Location

FAA Identifier: 58MI
Lat/Long: 41-55-26.8100N 083-23-20.1900W
41-55.446833N 083-23.336500W
41.9241139,-83.3889417
(estimated)
Elevation: 615 ft. / 187 m (estimated)
Variation: 06W (2000)
From city: 1 mile SW of MONROE, MI
Time zone: UTC -4 (UTC -5 during Standard Time)
Zip code: 48162

Heliport Operations

Heliport use: Private use, MEDICAL USE.
Activation date: 03/2007
Control tower: no
ARTCC: CLEVELAND CENTER
FSS: LANSING FLIGHT SERVICE STATION
NOTAMs facility: FDC (NOTAM-D service not available)
Attendance: UNATNDD
Wind indicator: yes
Segmented circle: no
Lights: FOR PERIMETER LIGHTS CALL THE EMERGENCY ROOM 734-240-8404 OR RADIO CONTROLLED ON 800 MHZ.

Heliport Communications

CTAF: 122.9
WX AWOS-3 at TTF (2.2 nm NW): 119.075 (734-384-0259)
WX AWOS-3 at ONZ (15 nm NE): 119.675 (734-692-9686)
WX AWOS-3 at DUH (16 nm SW): 119.175 (734-856-1563)
WX ASOS at DTW (17 nm N): PHONE 734-955-5015
WX ASOS at YIP (20 nm N): PHONE 734-961-6843

Nearby radio navigation aids

VOR radial/distance  VOR name  Freq  Var
CRLr161/8.0CARLETON VOR/DME115.7003W
DXOr189/17.4DETROIT VOR/DME113.4006W
SVMr166/30.5SALEM VORTAC114.3003W

 
NDB name  Hdg/Dist  Freq  Var  ID
GROSSE ILE232/14.941907WRYS .-. -.-- ...
TECUMSEH113/23.123906WTCU - -.-. ..-
ADRIAN090/30.927806WADG .- -.. --.
PORT CLINTON323/33.742307WPCW .--. -.-. .--

Heliport Services

Runway Information

Helipad H1

Dimensions: 40 x 40 ft. / 12 x 12 m
Surface: concrete, in excellent condition
Runway edge lights: PERI
WHITE LGTS.
Latitude: 41-55.446833N
Longitude: 083-23.336500W
Elevation: 615.0 ft.
Traffic pattern: leftleft

Heliport Ownership and Management from official FAA records

Ownership: Privately-owned
Owner: MERCY MEMORIAL HOSPITAL CORP
718 N MACOMB ST
MONROE, MI 48162-7815
Phone 734-240-5201
Manager: RICHARD PAYMENT
718 N MACOMB ST
MONROE, MI 48162-7815
Phone 734-240-4546

Additional Remarks

FOR CD CTC DETROIT APCH AT 734-955-1404.

Instrument Procedures

There are no published instrument procedures at 58MI.

Some nearby airports with instrument procedures:

KTTF - Custer Airport (2 nm NW)
KONZ - Grosse Ile Municipal Airport (15 nm NE)
KDUH - Toledo Suburban Airport (16 nm SW)
KDTW - Detroit Metro Wayne County Airport (17 nm N)
KYIP - Willow Run Airport (20 nm N)
 
Loc | Ops | Rwys | IFR | FBO | Links
Com | Nav | Svcs | Stats | Notes
Area around 58MI (Promedica Monroe Regional Hospital Heliport)
 
Road maps at: MapQuest Bing Google
 
Aerial photo
No photo
 
Sectional chart

 
Airport distance calculator
Flying to Promedica Monroe Regional Hospital Heliport? Find the distance to fly.

From to 58MI

Sunrise and sunset
Times for 26-May-2022
 Local
(UTC-4)
 Zulu
(UTC)
Morning civil twilight05:3209:32
Sunrise06:0510:05
Sunset20:5600:56
Evening civil twilight21:2901:29

Current date and time
Zulu (UTC)  26-May-2022 21:10:17
Local (UTC-4)  26-May-2022 17:10:17
 
METAR
KTTF 262055Z AUTO 19011KT 5SM -RA SCT014 BKN050 OVC085 21/20 A2982 RMK AO2 60009 T02100201 P0002
KONZ 
15nm NE 
262055Z AUTO 19004KT 2 1/2SM +RA SCT026 BKN035 OVC047 20/20 A2983 RMK AO2 60021 T01950195 P0003
KDUH 
16nm SW 
262055Z AUTO 22006KT 7SM -DZ SCT015 BKN035 OVC090 21/20 A2983 RMK AO2 T02050197
KDTW 
19nm N 
262053Z 18004KT 2SM -RA BR FEW009 BKN020 OVC040 21/19 A2984 RMK AO2 TWR VIS 3 RAE1956B25 SLP101 P0000 60008 T02060194 58007
KYIP 
20nm N 
262053Z 19008KT 9SM -RA SCT018 BKN035 OVC075 24/19 A2983 RMK AO2 RAE1958B13E24B42 SLP095 P0001 60016 T02390189 58011
TAF
KDTW 
19nm N 
261731Z 2618/2724 19012G20KT 6SM -SHRA BKN025 OVC050 TEMPO 2621/2624 3SM TSRA BR OVC030CB FM270100 18006KT P6SM OVC025 FM270800 20004KT 5SM BR SCT015 BKN025 FM271400 20006KT 6SM BR OVC020
KYIP 
20nm N 
261728Z 2618/2718 19012G20KT 6SM -SHRA SCT025 BKN035 TEMPO 2621/2624 3SM TSRA BR OVC030CB FM270100 18006KT P6SM OVC025 FM270800 20004KT 5SM BR SCT015 BKN025 FM271400 22006KT 6SM BR OVC020
NOTAMs
Click for the latest NOTAMs
NOTAMs are issued by the DoD/FAA and will open in a separate window not controlled by AirNav.

 

 
 

Would you like to see your business listed on this page?

 If your business provides an interesting product or service to pilots, flight crews, aircraft, or users of the Promedica Monroe Regional Hospital Heliport, you should consider listing it here.  To start the listing process, click on the button below
 
Add a business
 

Other Pages about Promedica Monroe Regional Hospital Heliport

Update a link
 
Copyright © AirNav, LLC. All rights reserved. Privacy Policy  Contact